createdAt,value
2023-05-05T00:00:02.290Z,100823.84
2023-05-05T00:02:29.193Z,100821.31
2023-05-05T00:04:56.229Z,100824.75
2023-05-05T00:07:23.054Z,100824.81
2023-05-05T00:09:49.948Z,100825.69
2023-05-05T00:12:16.945Z,100821.28
2023-05-05T00:14:43.794Z,100819.47
2023-05-05T00:17:10.808Z,100824.00
2023-05-05T00:19:37.788Z,100819.47
2023-05-05T00:22:04.670Z,100812.41
2023-05-05T00:24:31.456Z,100808.97
2023-05-05T00:26:58.297Z,100813.06
2023-05-05T00:29:25.341Z,100817.13
2023-05-05T00:31:53.022Z,100812.72
2023-05-05T00:34:19.936Z,100809.28
2023-05-05T00:36:46.867Z,100811.91
2023-05-05T00:39:14.484Z,100810.31
2023-05-05T00:41:41.625Z,100810.50
2023-05-05T00:44:08.463Z,100819.28
2023-05-05T00:46:36.139Z,100814.03
2023-05-05T00:49:03.271Z,100810.53
2023-05-05T00:51:30.302Z,100815.75
2023-05-05T00:53:57.566Z,100812.16
2023-05-05T00:56:27.513Z,100807.78
2023-05-05T00:58:54.489Z,100807.78
2023-05-05T01:01:21.358Z,100810.41
2023-05-05T01:03:48.366Z,100810.78
2023-05-05T01:06:39.731Z,100808.06
2023-05-05T01:10:10.971Z,100807.84
2023-05-05T01:13:05.781Z,100805.28
2023-05-05T01:15:36.326Z,100793.97
2023-05-05T01:18:21.455Z,100802.72
2023-05-05T01:21:00.710Z,100801.78
2023-05-05T01:23:59.216Z,100808.38
2023-05-05T01:26:48.228Z,100810.16
2023-05-05T01:29:40.740Z,100804.88
2023-05-05T01:32:11.990Z,100802.97
2023-05-05T01:35:15.525Z,100804.75
2023-05-05T01:37:55.814Z,100794.25
2023-05-05T01:40:26.999Z,100798.63
2023-05-05T01:42:56.452Z,100797.75
2023-05-05T01:45:28.911Z,100800.47
2023-05-05T01:47:57.631Z,100807.53
2023-05-05T01:50:26.128Z,100788.09
2023-05-05T01:52:54.597Z,100795.19
2023-05-05T01:55:25.673Z,100803.03
2023-05-05T01:57:55.058Z,100792.59
2023-05-05T02:00:23.094Z,100796.91
2023-05-05T02:02:50.836Z,100800.56
2023-05-05T02:05:22.075Z,100803.97
2023-05-05T02:07:51.485Z,100815.72
2023-05-05T02:10:18.650Z,100798.16
2023-05-05T02:12:47.789Z,100802.50
2023-05-05T02:15:15.756Z,100794.50
2023-05-05T02:17:46.759Z,100790.09
2023-05-05T02:20:16.319Z,100790.13
2023-05-05T02:22:43.445Z,100787.47
2023-05-05T02:25:10.601Z,100789.25
2023-05-05T02:27:41.874Z,100783.97
2023-05-05T02:30:11.346Z,100796.41
2023-05-05T02:32:41.632Z,100797.22
2023-05-05T02:35:15.846Z,100802.47
2023-05-05T02:37:51.122Z,100791.12
2023-05-05T02:40:24.715Z,100790.19
2023-05-05T02:42:54.638Z,100784.00
2023-05-05T02:45:24.232Z,100786.63
2023-05-05T02:47:51.084Z,100784.00
2023-05-05T02:50:18.263Z,100791.94
2023-05-05T02:52:46.069Z,100782.28
2023-05-05T02:55:13.675Z,100788.50
2023-05-05T02:57:55.399Z,100782.31
2023-05-05T03:00:22.241Z,100785.81
2023-05-05T03:03:05.723Z,100782.37
2023-05-05T03:05:42.824Z,100778.91
2023-05-05T03:08:33.418Z,100785.03
2023-05-05T03:11:16.948Z,100777.97
2023-05-05T03:13:44.996Z,100778.91
2023-05-05T03:16:13.379Z,100784.16
2023-05-05T03:18:42.565Z,100780.69
2023-05-05T03:21:09.755Z,100790.31
2023-05-05T03:23:36.855Z,100782.47
2023-05-05T03:26:03.842Z,100788.59
2023-05-05T03:28:30.766Z,100788.56
2023-05-05T03:30:57.751Z,100797.38
2023-05-05T03:33:24.598Z,100791.25
2023-05-05T03:35:51.487Z,100785.97
2023-05-05T03:38:18.298Z,100783.31
2023-05-05T03:40:45.179Z,100784.19
2023-05-05T03:43:12.396Z,100788.56
2023-05-05T03:45:39.324Z,100792.97
2023-05-05T03:48:07.055Z,100786.84
2023-05-05T03:50:34.045Z,100791.22
2023-05-05T03:53:01.085Z,100788.59
2023-05-05T03:55:28.079Z,100796.47
2023-05-05T03:57:56.556Z,100796.50
2023-05-05T04:00:23.602Z,100795.63
2023-05-05T04:02:50.612Z,100799.09
2023-05-05T04:05:18.449Z,100797.22
2023-05-05T04:07:45.273Z,100795.19
2023-05-05T04:10:12.459Z,100790.47
2023-05-05T04:12:39.430Z,100783.25
2023-05-05T04:15:07.090Z,100789.87
2023-05-05T04:17:33.988Z,100790.53
2023-05-05T04:20:00.953Z,100792.22
2023-05-05T04:22:27.758Z,100785.87
2023-05-05T04:24:54.748Z,100786.66
2023-05-05T04:27:21.566Z,100791.88
2023-05-05T04:29:48.469Z,100786.72
2023-05-05T04:32:15.998Z,100788.16
2023-05-05T04:34:44.096Z,100782.78
2023-05-05T04:37:15.562Z,100783.13
2023-05-05T04:39:47.073Z,100784.53
2023-05-05T04:42:14.011Z,100786.88
2023-05-05T04:44:41.021Z,100782.72
2023-05-05T04:47:07.933Z,100785.03
2023-05-05T04:49:34.894Z,100783.78
2023-05-05T04:52:01.787Z,100786.69
2023-05-05T04:54:28.685Z,100783.88
2023-05-05T04:56:55.894Z,100784.31
2023-05-05T04:59:22.740Z,100783.34
2023-05-05T05:01:49.586Z,100778.03
2023-05-05T05:04:18.810Z,100780.06
2023-05-05T05:06:46.215Z,100783.09
2023-05-05T05:09:13.302Z,100785.34
2023-05-05T05:11:40.124Z,100795.00
2023-05-05T05:14:07.064Z,100799.94
2023-05-05T05:16:33.971Z,100786.63
2023-05-05T05:19:01.752Z,100776.75
2023-05-05T05:21:28.903Z,100775.56
2023-05-05T05:23:55.791Z,100770.13
2023-05-05T05:26:23.394Z,100772.25
2023-05-05T05:28:50.220Z,100777.91
2023-05-05T05:31:17.100Z,100770.31
2023-05-05T05:33:44.065Z,100770.25
2023-05-05T05:36:11.156Z,100772.94
2023-05-05T05:38:37.942Z,100774.84
2023-05-05T05:41:07.902Z,100777.91
2023-05-05T05:43:37.084Z,100774.22
2023-05-05T05:46:04.480Z,100766.22
2023-05-05T05:48:32.335Z,100776.03
2023-05-05T05:50:59.158Z,100773.69
2023-05-05T05:53:26.070Z,100776.37
2023-05-05T05:55:52.968Z,100780.69
2023-05-05T05:58:20.102Z,100775.16
2023-05-05T06:00:48.503Z,100769.28
2023-05-05T06:03:16.180Z,100775.03
2023-05-05T06:05:43.114Z,100778.97
2023-05-05T06:08:11.087Z,100783.81
2023-05-05T06:10:37.946Z,100776.03
2023-05-05T06:13:04.796Z,100787.38
2023-05-05T06:15:31.731Z,100793.16
2023-05-05T06:17:58.545Z,100795.38
2023-05-05T06:20:25.468Z,100801.59
2023-05-05T06:22:52.333Z,100805.00
2023-05-05T06:25:19.187Z,100805.16
2023-05-05T06:27:47.274Z,100798.56
2023-05-05T06:30:15.013Z,100790.41
2023-05-05T06:32:42.079Z,100792.50
2023-05-05T06:35:09.822Z,100794.72
2023-05-05T06:37:36.736Z,100802.09
2023-05-05T06:40:03.858Z,100791.12
2023-05-05T06:42:33.062Z,100784.97
2023-05-05T06:44:59.936Z,100790.91
2023-05-05T06:47:26.813Z,100781.06
2023-05-05T06:49:53.971Z,100789.37
2023-05-05T06:52:20.882Z,100789.22
2023-05-05T06:54:47.680Z,100788.19
2023-05-05T06:57:14.763Z,100797.69
2023-05-05T06:59:41.846Z,100792.81
2023-05-05T07:02:08.671Z,100791.19
2023-05-05T07:04:35.817Z,100794.00
2023-05-05T07:07:02.720Z,100791.62
2023-05-05T07:09:29.617Z,100792.00
2023-05-05T07:11:56.500Z,100789.16
2023-05-05T07:14:24.469Z,100785.38
2023-05-05T07:16:51.643Z,100792.19
2023-05-05T07:19:18.562Z,100791.41
2023-05-05T07:21:45.433Z,100797.38
2023-05-05T07:24:12.304Z,100784.44
2023-05-05T07:26:39.168Z,100781.94
2023-05-05T07:29:07.305Z,100782.50
2023-05-05T07:31:34.332Z,100779.25
2023-05-05T07:34:01.461Z,100781.22
2023-05-05T07:36:28.587Z,100775.41
2023-05-05T07:38:55.629Z,100780.44
2023-05-05T07:41:22.541Z,100775.91
2023-05-05T07:43:49.454Z,100777.09
2023-05-05T07:46:17.695Z,100780.75
2023-05-05T07:48:44.624Z,100770.34
2023-05-05T07:51:11.470Z,100764.47
2023-05-05T07:53:38.331Z,100776.31
2023-05-05T07:56:05.253Z,100779.19
2023-05-05T07:58:32.134Z,100773.63
2023-05-05T08:00:59.622Z,100783.59
2023-05-05T08:03:26.785Z,100762.16
2023-05-05T08:05:55.666Z,100763.41
2023-05-05T08:08:27.112Z,100764.28
2023-05-05T08:10:54.814Z,100761.22
2023-05-05T08:13:21.868Z,100759.34
2023-05-05T08:15:48.776Z,100759.75
2023-05-05T08:18:15.592Z,100750.91
2023-05-05T08:20:42.592Z,100760.66
2023-05-05T08:23:09.517Z,100768.19
2023-05-05T08:25:36.519Z,100760.81
2023-05-05T08:28:03.824Z,100761.84
2023-05-05T08:30:30.912Z,100756.78
2023-05-05T08:32:58.062Z,100752.63
2023-05-05T08:35:24.962Z,100750.31
2023-05-05T08:37:52.093Z,100746.22
2023-05-05T08:40:21.371Z,100746.00
2023-05-05T08:42:48.618Z,100749.97
2023-05-05T08:45:16.202Z,100749.09
2023-05-05T08:47:43.678Z,100749.09
2023-05-05T08:50:11.709Z,100752.16
2023-05-05T08:52:45.972Z,100744.41
2023-05-05T08:55:26.779Z,100739.81
2023-05-05T08:57:57.531Z,100740.50
2023-05-05T09:00:27.312Z,100738.59
2023-05-05T09:02:57.827Z,100737.41
2023-05-05T09:05:25.883Z,100742.00
2023-05-05T09:07:52.958Z,100742.56
2023-05-05T09:10:19.951Z,100738.03
2023-05-05T09:12:47.035Z,100725.75
2023-05-05T09:15:15.391Z,100728.75
2023-05-05T09:17:42.868Z,100733.66
2023-05-05T09:20:11.993Z,100728.06
2023-05-05T09:22:40.744Z,100722.00
2023-05-05T09:25:10.404Z,100724.44
2023-05-05T09:27:48.859Z,100714.31
2023-05-05T09:30:18.118Z,100727.78
2023-05-05T09:32:49.290Z,100728.25
2023-05-05T09:35:17.206Z,100720.91
2023-05-05T09:37:44.737Z,100717.56
2023-05-05T09:40:14.263Z,100703.72
2023-05-05T09:42:41.760Z,100705.06
2023-05-05T09:45:18.091Z,100706.22
2023-05-05T09:47:49.456Z,100706.94
2023-05-05T09:50:19.163Z,100709.03
2023-05-05T09:53:00.883Z,100704.84
2023-05-05T09:55:28.387Z,100699.78
2023-05-05T09:57:56.453Z,100709.31
2023-05-05T10:00:39.073Z,100700.12
2023-05-05T10:03:06.053Z,100698.56
2023-05-05T10:05:32.979Z,100704.53
2023-05-05T10:08:13.461Z,100698.53
2023-05-05T10:10:51.684Z,100698.28
2023-05-05T10:13:21.203Z,100702.03
2023-05-05T10:15:52.260Z,100709.59
2023-05-05T10:18:27.856Z,100700.28
2023-05-05T10:21:03.386Z,100698.50
2023-05-05T10:23:46.132Z,100703.56
2023-05-05T10:26:15.084Z,100696.41
2023-05-05T10:28:55.278Z,100690.03
2023-05-05T10:31:30.328Z,100694.72
2023-05-05T10:34:10.822Z,100691.75
2023-05-05T10:36:39.507Z,100687.06
2023-05-05T10:39:11.000Z,100684.56
2023-05-05T10:41:38.499Z,100683.25
2023-05-05T10:44:07.003Z,100677.16
2023-05-05T10:46:33.964Z,100667.94
2023-05-05T10:49:33.716Z,100669.81
2023-05-05T10:52:19.462Z,100671.09
2023-05-05T10:54:55.904Z,100659.09
2023-05-05T10:57:25.972Z,100658.72
2023-05-05T10:59:52.888Z,100658.72
2023-05-05T11:02:29.708Z,100648.94
2023-05-05T11:05:08.471Z,100644.91
2023-05-05T11:07:36.177Z,100634.00
2023-05-05T11:10:07.858Z,100646.00
2023-05-05T11:13:02.234Z,100639.84
2023-05-05T11:15:31.469Z,100645.50
2023-05-05T11:18:05.808Z,100646.91
2023-05-05T11:20:37.323Z,100639.84
2023-05-05T11:23:04.364Z,100625.53
2023-05-05T11:25:41.273Z,100632.12
2023-05-05T11:28:13.065Z,100632.63
2023-05-05T11:30:55.135Z,100626.00
2023-05-05T11:33:32.322Z,100623.31
2023-05-05T11:36:05.764Z,100620.81
2023-05-05T11:38:36.457Z,100620.69
2023-05-05T11:41:12.055Z,100608.38
2023-05-05T11:43:41.969Z,100614.06
2023-05-05T11:46:17.114Z,100608.91
2023-05-05T11:48:47.301Z,100618.69
2023-05-05T11:51:18.706Z,100614.03
2023-05-05T11:53:49.978Z,100609.84
2023-05-05T11:56:19.453Z,100621.47
2023-05-05T11:58:47.450Z,100612.50
2023-05-05T12:01:14.932Z,100625.28
2023-05-05T12:03:43.213Z,100621.84
2023-05-05T12:06:10.490Z,100615.69
2023-05-05T12:08:41.396Z,100614.09
2023-05-05T12:11:11.444Z,100621.09
2023-05-05T12:13:38.495Z,100610.16
2023-05-05T12:16:09.833Z,100610.09
2023-05-05T12:18:36.853Z,100602.97
2023-05-05T12:21:15.840Z,100605.91
2023-05-05T12:23:43.070Z,100594.50
2023-05-05T12:26:30.243Z,100602.66
2023-05-05T12:29:01.214Z,100595.91
2023-05-05T12:31:38.984Z,100588.34
2023-05-05T12:34:08.706Z,100590.41
2023-05-05T12:36:39.983Z,100588.16
2023-05-05T12:39:06.896Z,100581.81
2023-05-05T12:41:34.075Z,100579.47
2023-05-05T12:44:03.265Z,100588.00
2023-05-05T12:46:31.302Z,100578.97
2023-05-05T12:49:08.134Z,100585.22
2023-05-05T12:51:36.411Z,100580.31
2023-05-05T12:54:10.442Z,100576.19
2023-05-05T12:56:44.831Z,100566.06
2023-05-05T12:59:29.036Z,100554.50
2023-05-05T13:01:57.720Z,100563.34
2023-05-05T13:04:28.371Z,100553.16
2023-05-05T13:07:14.641Z,100549.50
2023-05-05T13:09:41.916Z,100549.75
2023-05-05T13:12:11.729Z,100548.16
2023-05-05T13:14:39.936Z,100532.84
2023-05-05T13:17:06.978Z,100535.34
2023-05-05T13:19:36.065Z,100546.28
2023-05-05T13:22:03.408Z,100540.62
2023-05-05T13:24:46.680Z,100529.59
2023-05-05T13:27:17.422Z,100529.56
2023-05-05T13:29:45.338Z,100522.00
2023-05-05T13:32:12.226Z,100525.16
2023-05-05T13:34:39.581Z,100522.25
2023-05-05T13:37:06.727Z,100520.47
2023-05-05T13:39:33.649Z,100506.72
2023-05-05T13:42:00.684Z,100514.94
2023-05-05T13:44:27.643Z,100511.53
2023-05-05T13:46:54.757Z,100510.69
2023-05-05T13:49:21.902Z,100502.97
2023-05-05T13:51:48.824Z,100500.59
2023-05-05T13:54:15.703Z,100501.94
2023-05-05T13:56:42.744Z,100494.06
2023-05-05T13:59:09.740Z,100495.66
2023-05-05T14:01:36.696Z,100492.97
2023-05-05T14:04:05.466Z,100484.16
2023-05-05T14:06:32.761Z,100489.31
2023-05-05T14:08:59.897Z,100492.97
2023-05-05T14:11:26.723Z,100495.34
2023-05-05T14:13:53.613Z,100482.62
2023-05-05T14:16:20.499Z,100489.41
2023-05-05T14:18:47.360Z,100495.03
2023-05-05T14:21:14.251Z,100488.41
2023-05-05T14:23:41.258Z,100494.53
2023-05-05T14:26:09.258Z,100490.34
2023-05-05T14:28:36.402Z,100495.34
2023-05-05T14:31:03.359Z,100488.94
2023-05-05T14:33:30.282Z,100476.66
2023-05-05T14:35:57.191Z,100480.00
2023-05-05T14:38:24.059Z,100479.09
2023-05-05T14:40:50.960Z,100482.00
2023-05-05T14:43:17.791Z,100467.37
2023-05-05T14:45:44.636Z,100473.19
2023-05-05T14:48:11.568Z,100471.88
2023-05-05T14:50:40.059Z,100471.56
2023-05-05T14:53:06.857Z,100467.16
2023-05-05T14:55:33.737Z,100465.19
2023-05-05T14:58:00.570Z,100472.34
2023-05-05T15:00:27.442Z,100469.34
2023-05-05T15:02:54.304Z,100474.97
2023-05-05T15:05:21.480Z,100462.41
2023-05-05T15:07:48.418Z,100459.12
2023-05-05T15:10:15.355Z,100470.87
2023-05-05T15:12:43.048Z,100473.97
2023-05-05T15:15:10.530Z,100469.22
2023-05-05T15:17:39.067Z,100463.87
2023-05-05T15:20:07.001Z,100474.13
2023-05-05T15:22:34.075Z,100468.00
2023-05-05T15:25:01.550Z,100469.28
2023-05-05T15:27:28.666Z,100468.34
2023-05-05T15:29:55.620Z,100467.41
2023-05-05T15:32:22.822Z,100466.06
2023-05-05T15:34:50.474Z,100467.28
2023-05-05T15:37:17.583Z,100464.84
2023-05-05T15:39:44.616Z,100465.72
2023-05-05T15:42:11.540Z,100458.44
2023-05-05T15:44:38.636Z,100459.84
2023-05-05T15:47:06.763Z,100462.72
2023-05-05T15:49:33.695Z,100458.63
2023-05-05T15:52:00.913Z,100465.56
2023-05-05T15:54:27.813Z,100456.38
2023-05-05T15:56:55.181Z,100463.13
2023-05-05T15:59:22.127Z,100449.41
2023-05-05T16:01:49.292Z,100452.81
2023-05-05T16:04:16.181Z,100447.78
2023-05-05T16:06:43.165Z,100449.25
2023-05-05T16:09:10.351Z,100445.62
2023-05-05T16:11:39.849Z,100444.34
2023-05-05T16:14:06.559Z,100438.03
2023-05-05T16:16:33.472Z,100446.91
2023-05-05T16:19:00.332Z,100434.66
2023-05-05T16:21:27.722Z,100446.03
2023-05-05T16:23:54.594Z,100427.69
2023-05-05T16:26:21.468Z,100434.69
2023-05-05T16:28:48.778Z,100430.19
2023-05-05T16:31:15.641Z,100431.38
2023-05-05T16:33:44.143Z,100430.16
2023-05-05T16:36:14.669Z,100424.69
2023-05-05T16:38:41.700Z,100421.78
2023-05-05T16:41:08.678Z,100433.59
2023-05-05T16:43:37.392Z,100422.44
2023-05-05T16:46:04.906Z,100431.50
2023-05-05T16:48:31.973Z,100429.47
2023-05-05T16:50:59.032Z,100429.47
2023-05-05T16:53:26.175Z,100437.56
2023-05-05T16:55:53.761Z,100432.69
2023-05-05T16:58:21.455Z,100432.16
2023-05-05T17:00:49.387Z,100427.63
2023-05-05T17:03:17.298Z,100431.41
2023-05-05T17:05:45.285Z,100439.12
2023-05-05T17:08:14.481Z,100441.66
2023-05-05T17:10:42.406Z,100435.81
2023-05-05T17:13:13.711Z,100429.78
2023-05-05T17:15:41.607Z,100436.50
2023-05-05T17:18:09.019Z,100438.31
2023-05-05T17:20:36.552Z,100439.84
2023-05-05T17:23:03.600Z,100438.59
2023-05-05T17:25:30.937Z,100439.06
2023-05-05T17:27:57.902Z,100435.81
2023-05-05T17:30:24.768Z,100431.84
2023-05-05T17:32:51.632Z,100434.06
2023-05-05T17:35:18.733Z,100435.50
2023-05-05T17:37:45.788Z,100431.47
2023-05-05T17:40:12.773Z,100427.37
2023-05-05T17:42:39.720Z,100430.81
2023-05-05T17:45:07.933Z,100434.28
2023-05-05T17:47:35.263Z,100439.66
2023-05-05T17:50:02.328Z,100434.38
2023-05-05T17:52:29.369Z,100435.03
2023-05-05T17:54:56.170Z,100436.28
2023-05-05T17:57:23.161Z,100437.78
2023-05-05T17:59:50.615Z,100437.94
2023-05-05T18:02:18.207Z,100436.84
2023-05-05T18:04:45.728Z,100438.19
2023-05-05T18:07:14.833Z,100436.41
2023-05-05T18:09:42.311Z,100447.78
2023-05-05T18:12:09.239Z,100440.22
2023-05-05T18:14:36.178Z,100440.03
2023-05-05T18:17:03.349Z,100448.38
2023-05-05T18:19:30.351Z,100445.31
2023-05-05T18:21:59.890Z,100451.44
2023-05-05T18:24:27.630Z,100445.00
2023-05-05T18:26:54.476Z,100449.31
2023-05-05T18:29:22.285Z,100443.31
2023-05-05T18:31:53.148Z,100450.91
2023-05-05T18:34:20.885Z,100458.56
2023-05-05T18:36:48.376Z,100462.31
2023-05-05T18:39:15.295Z,100458.69
2023-05-05T18:41:42.209Z,100469.59
2023-05-05T18:44:09.159Z,100463.19
2023-05-05T18:46:36.087Z,100468.81
2023-05-05T18:49:03.903Z,100467.37
2023-05-05T18:51:30.976Z,100472.91
2023-05-05T18:53:58.046Z,100466.56
2023-05-05T18:56:24.883Z,100463.75
2023-05-05T18:58:51.760Z,100468.06
2023-05-05T19:01:18.731Z,100465.91
2023-05-05T19:03:48.912Z,100474.22
2023-05-05T19:06:16.512Z,100474.91
2023-05-05T19:08:44.383Z,100484.72
2023-05-05T19:11:11.503Z,100476.16
2023-05-05T19:13:39.748Z,100483.91
2023-05-05T19:16:07.345Z,100484.00
2023-05-05T19:18:34.468Z,100488.56
2023-05-05T19:21:01.706Z,100483.00
2023-05-05T19:23:28.552Z,100485.66
2023-05-05T19:25:55.565Z,100478.41
2023-05-05T19:28:22.434Z,100491.25
2023-05-05T19:30:49.408Z,100487.38
2023-05-05T19:33:16.619Z,100492.66
2023-05-05T19:35:44.155Z,100489.34
2023-05-05T19:38:11.145Z,100495.47
2023-05-05T19:40:41.301Z,100496.56
2023-05-05T19:43:08.305Z,100505.28
2023-05-05T19:45:35.650Z,100495.50
2023-05-05T19:48:03.011Z,100495.31
2023-05-05T19:50:30.869Z,100493.75
2023-05-05T19:52:58.232Z,100484.66
2023-05-05T19:55:25.876Z,100487.28
2023-05-05T19:57:52.773Z,100491.09
2023-05-05T20:00:19.957Z,100487.19
2023-05-05T20:02:48.757Z,100495.88
2023-05-05T20:05:17.811Z,100490.44
2023-05-05T20:07:47.011Z,100491.19
2023-05-05T20:10:14.005Z,100491.44
2023-05-05T20:12:49.205Z,100493.66
2023-05-05T20:15:19.988Z,100492.81
2023-05-05T20:17:48.033Z,100492.59
2023-05-05T20:20:20.865Z,100495.91
2023-05-05T20:22:48.648Z,100498.56
2023-05-05T20:25:18.559Z,100493.41
2023-05-05T20:27:48.188Z,100490.44
2023-05-05T20:30:15.149Z,100485.50
2023-05-05T20:32:42.147Z,100493.56
2023-05-05T20:35:09.778Z,100484.37
2023-05-05T20:37:36.574Z,100488.34
2023-05-05T20:40:04.027Z,100490.97
2023-05-05T20:42:30.917Z,100484.22
2023-05-05T20:44:57.844Z,100486.56
2023-05-05T20:47:24.975Z,100481.13
2023-05-05T20:49:52.686Z,100476.44
2023-05-05T20:52:20.171Z,100476.78
2023-05-05T20:54:46.993Z,100475.44
2023-05-05T20:57:13.955Z,100476.75
2023-05-05T20:59:40.828Z,100480.44
2023-05-05T21:02:08.328Z,100474.22
2023-05-05T21:04:35.525Z,100467.94
2023-05-05T21:07:03.054Z,100468.56
2023-05-05T21:09:29.916Z,100471.56
2023-05-05T21:11:56.822Z,100470.06
2023-05-05T21:14:23.988Z,100479.62
2023-05-05T21:16:50.902Z,100468.50
2023-05-05T21:19:17.771Z,100473.00
2023-05-05T21:21:44.590Z,100466.53
2023-05-05T21:24:13.159Z,100463.25
2023-05-05T21:26:44.376Z,100460.56
2023-05-05T21:29:11.847Z,100461.75
2023-05-05T21:31:38.752Z,100464.19
2023-05-05T21:34:05.619Z,100457.37
2023-05-05T21:36:34.088Z,100455.94
2023-05-05T21:39:01.267Z,100453.72
2023-05-05T21:41:28.165Z,100451.19
2023-05-05T21:43:55.129Z,100451.03
2023-05-05T21:46:22.089Z,100463.28
2023-05-05T21:48:49.013Z,100462.19
2023-05-05T21:51:15.996Z,100465.75
2023-05-05T21:53:42.922Z,100467.28
2023-05-05T21:56:09.899Z,100469.62
2023-05-05T21:58:36.811Z,100464.84
2023-05-05T22:01:03.800Z,100469.22
2023-05-05T22:03:30.764Z,100471.56
2023-05-05T22:05:57.641Z,100480.09
2023-05-05T22:08:24.547Z,100481.75
2023-05-05T22:10:51.651Z,100486.84
2023-05-05T22:13:18.613Z,100482.50
2023-05-05T22:15:47.480Z,100481.56
2023-05-05T22:18:15.557Z,100480.09
2023-05-05T22:20:42.512Z,100480.81
2023-05-05T22:23:09.570Z,100476.53
2023-05-05T22:25:36.484Z,100478.16
2023-05-05T22:28:03.506Z,100471.66
2023-05-05T22:30:30.417Z,100473.88
2023-05-05T22:32:57.405Z,100468.41
2023-05-05T22:35:24.555Z,100477.16
2023-05-05T22:37:51.387Z,100472.22
2023-05-05T22:40:18.236Z,100474.66
2023-05-05T22:42:45.077Z,100468.75
2023-05-05T22:45:12.168Z,100471.69
2023-05-05T22:47:39.723Z,100473.00
2023-05-05T22:50:07.953Z,100473.22
2023-05-05T22:52:34.832Z,100481.25
2023-05-05T22:55:01.910Z,100483.03
2023-05-05T22:57:28.801Z,100482.28
2023-05-05T22:59:55.874Z,100489.88
2023-05-05T23:02:22.876Z,100492.62
2023-05-05T23:04:50.011Z,100490.63
2023-05-05T23:07:16.931Z,100485.69
2023-05-05T23:09:43.736Z,100487.84
2023-05-05T23:12:10.956Z,100481.66
2023-05-05T23:14:38.450Z,100480.47
2023-05-05T23:17:05.471Z,100478.53
2023-05-05T23:19:32.801Z,100488.25
2023-05-05T23:22:00.267Z,100480.63
2023-05-05T23:24:28.387Z,100480.50
2023-05-05T23:26:57.052Z,100473.22
2023-05-05T23:29:23.876Z,100470.72
2023-05-05T23:31:50.827Z,100469.28
2023-05-05T23:34:17.603Z,100468.84
2023-05-05T23:36:44.409Z,100465.50
2023-05-05T23:39:11.610Z,100463.72
2023-05-05T23:41:38.494Z,100469.34
2023-05-05T23:44:05.414Z,100466.03
2023-05-05T23:46:32.647Z,100470.59
2023-05-05T23:48:59.560Z,100465.84
2023-05-05T23:51:27.408Z,100462.56
2023-05-05T23:53:57.388Z,100470.13
2023-05-05T23:56:24.685Z,100459.81
2023-05-05T23:58:52.692Z,100460.37
